sensor_id;sensor_type;location;lat;lon;timestamp;P1;durP1;ratioP1;P2;durP2;ratioP2
1258;SDS011;619;51.472;6.628;2024-02-14T00:00:11;2.30;;;1.23;;
1258;SDS011;619;51.472;6.628;2024-02-14T00:02:48;1.53;;;1.30;;
1258;SDS011;619;51.472;6.628;2024-02-14T00:05:19;2.03;;;1.53;;
1258;SDS011;619;51.472;6.628;2024-02-14T00:07:44;2.23;;;1.60;;
1258;SDS011;619;51.472;6.628;2024-02-14T00:10:12;1.60;;;1.47;;
1258;SDS011;619;51.472;6.628;2024-02-14T00:12:38;2.90;;;1.40;;
1258;SDS011;619;51.472;6.628;2024-02-14T00:15:06;3.50;;;1.60;;
1258;SDS011;619;51.472;6.628;2024-02-14T00:17:32;1.83;;;1.43;;
1258;SDS011;619;51.472;6.628;2024-02-14T00:20:01;5.43;;;1.90;;
1258;SDS011;619;51.472;6.628;2024-02-14T00:22:28;1.50;;;1.30;;
1258;SDS011;619;51.472;6.628;2024-02-14T00:24:56;2.03;;;0.90;;
1258;SDS011;619;51.472;6.628;2024-02-14T00:27:22;3.00;;;1.90;;
1258;SDS011;619;51.472;6.628;2024-02-14T00:29:49;1.77;;;1.00;;
1258;SDS011;619;51.472;6.628;2024-02-14T00:32:15;7.73;;;3.13;;
1258;SDS011;619;51.472;6.628;2024-02-14T00:34:45;1.50;;;1.40;;
1258;SDS011;619;51.472;6.628;2024-02-14T00:37:14;1.80;;;1.00;;
1258;SDS011;619;51.472;6.628;2024-02-14T00:39:40;1.87;;;1.20;;
1258;SDS011;619;51.472;6.628;2024-02-14T00:42:08;1.90;;;1.37;;
1258;SDS011;619;51.472;6.628;2024-02-14T00:44:36;3.27;;;1.57;;
1258;SDS011;619;51.472;6.628;2024-02-14T00:47:04;1.60;;;1.30;;
1258;SDS011;619;51.472;6.628;2024-02-14T00:49:34;10.03;;;1.80;;
1258;SDS011;619;51.472;6.628;2024-02-14T00:52:00;1.40;;;1.10;;
1258;SDS011;619;51.472;6.628;2024-02-14T00:54:31;3.37;;;1.00;;
1258;SDS011;619;51.472;6.628;2024-02-14T00:56:57;1.43;;;1.03;;
1258;SDS011;619;51.472;6.628;2024-02-14T00:59:24;1.57;;;1.13;;
1258;SDS011;619;51.472;6.628;2024-02-14T01:01:50;1.77;;;1.43;;
1258;SDS011;619;51.472;6.628;2024-02-14T01:04:16;1.77;;;1.23;;
1258;SDS011;619;51.472;6.628;2024-02-14T01:06:44;1.40;;;1.10;;
1258;SDS011;619;51.472;6.628;2024-02-14T01:09:10;1.40;;;1.30;;
1258;SDS011;619;51.472;6.628;2024-02-14T01:11:38;1.33;;;1.23;;
1258;SDS011;619;51.472;6.628;2024-02-14T01:14:03;3.93;;;1.27;;
1258;SDS011;619;51.472;6.628;2024-02-14T01:16:29;1.27;;;0.97;;
1258;SDS011;619;51.472;6.628;2024-02-14T01:18:57;1.23;;;1.13;;
1258;SDS011;619;51.472;6.628;2024-02-14T01:21:25;4.10;;;1.10;;
1258;SDS011;619;51.472;6.628;2024-02-14T01:23:50;3.37;;;1.87;;
1258;SDS011;619;51.472;6.628;2024-02-14T01:26:17;1.43;;;1.07;;
1258;SDS011;619;51.472;6.628;2024-02-14T01:28:42;1.50;;;1.00;;
1258;SDS011;619;51.472;6.628;2024-02-14T01:31:09;3.53;;;0.90;;
1258;SDS011;619;51.472;6.628;2024-02-14T01:33:39;2.00;;;1.00;;
1258;SDS011;619;51.472;6.628;2024-02-14T01:36:06;1.17;;;0.93;;
1258;SDS011;619;51.472;6.628;2024-02-14T01:38:34;2.40;;;0.87;;
1258;SDS011;619;51.472;6.628;2024-02-14T01:41:01;1.50;;;1.00;;
1258;SDS011;619;51.472;6.628;2024-02-14T01:43:35;2.60;;;0.80;;
1258;SDS011;619;51.472;6.628;2024-02-14T01:46:07;1.80;;;1.50;;
1258;SDS011;619;51.472;6.628;2024-02-14T01:48:35;1.23;;;0.90;;
1258;SDS011;619;51.472;6.628;2024-02-14T01:51:02;1.40;;;0.90;;
1258;SDS011;619;51.472;6.628;2024-02-14T01:53:28;1.03;;;0.83;;
1258;SDS011;619;51.472;6.628;2024-02-14T01:55:56;1.40;;;1.00;;
1258;SDS011;619;51.472;6.628;2024-02-14T01:58:22;2.13;;;1.50;;
1258;SDS011;619;51.472;6.628;2024-02-14T02:00:51;2.20;;;1.10;;
1258;SDS011;619;51.472;6.628;2024-02-14T02:03:22;1.57;;;1.13;;
1258;SDS011;619;51.472;6.628;2024-02-14T02:05:54;1.83;;;1.30;;
1258;SDS011;619;51.472;6.628;2024-02-14T02:08:21;1.43;;;1.00;;
1258;SDS011;619;51.472;6.628;2024-02-14T02:10:47;2.33;;;1.07;;
1258;SDS011;619;51.472;6.628;2024-02-14T02:13:15;2.50;;;1.20;;
1258;SDS011;619;51.472;6.628;2024-02-14T02:15:41;1.37;;;1.17;;
1258;SDS011;619;51.472;6.628;2024-02-14T02:18:12;3.10;;;1.57;;
1258;SDS011;619;51.472;6.628;2024-02-14T02:20:38;2.37;;;1.20;;
1258;SDS011;619;51.472;6.628;2024-02-14T02:23:06;3.37;;;1.73;;
1258;SDS011;619;51.472;6.628;2024-02-14T02:25:33;1.90;;;1.20;;
1258;SDS011;619;51.472;6.628;2024-02-14T02:28:01;3.50;;;1.73;;
1258;SDS011;619;51.472;6.628;2024-02-14T02:30:27;2.33;;;0.90;;
1258;SDS011;619;51.472;6.628;2024-02-14T02:32:52;1.57;;;0.93;;
1258;SDS011;619;51.472;6.628;2024-02-14T02:35:18;3.70;;;1.50;;
1258;SDS011;619;51.472;6.628;2024-02-14T02:37:46;1.90;;;1.23;;
1258;SDS011;619;51.472;6.628;2024-02-14T02:40:13;1.93;;;1.10;;
1258;SDS011;619;51.472;6.628;2024-02-14T02:42:39;1.40;;;1.13;;
1258;SDS011;619;51.472;6.628;2024-02-14T02:45:05;1.73;;;1.13;;
1258;SDS011;619;51.472;6.628;2024-02-14T02:47:33;2.03;;;1.47;;
1258;SDS011;619;51.472;6.628;2024-02-14T02:49:59;2.60;;;1.30;;
1258;SDS011;619;51.472;6.628;2024-02-14T02:52:28;2.63;;;1.47;;
1258;SDS011;619;51.472;6.628;2024-02-14T02:54:55;2.60;;;1.60;;
1258;SDS011;619;51.472;6.628;2024-02-14T02:57:21;2.00;;;1.30;;
1258;SDS011;619;51.472;6.628;2024-02-14T02:59:46;1.40;;;1.00;;
1258;SDS011;619;51.472;6.628;2024-02-14T03:02:14;3.00;;;1.40;;
1258;SDS011;619;51.472;6.628;2024-02-14T03:04:40;2.47;;;1.63;;
1258;SDS011;619;51.472;6.628;2024-02-14T03:07:07;5.70;;;1.73;;
1258;SDS011;619;51.472;6.628;2024-02-14T03:09:35;1.80;;;1.50;;
1258;SDS011;619;51.472;6.628;2024-02-14T03:12:04;1.93;;;1.27;;
1258;SDS011;619;51.472;6.628;2024-02-14T03:14:30;1.70;;;1.27;;
1258;SDS011;619;51.472;6.628;2024-02-14T03:16:58;2.07;;;1.07;;
1258;SDS011;619;51.472;6.628;2024-02-14T03:19:27;1.40;;;1.17;;
1258;SDS011;619;51.472;6.628;2024-02-14T03:21:54;2.13;;;1.53;;
1258;SDS011;619;51.472;6.628;2024-02-14T03:24:22;1.70;;;1.30;;
1258;SDS011;619;51.472;6.628;2024-02-14T03:26:50;2.10;;;1.50;;
1258;SDS011;619;51.472;6.628;2024-02-14T03:29:19;2.37;;;1.63;;
1258;SDS011;619;51.472;6.628;2024-02-14T03:31:46;2.50;;;1.57;;
1258;SDS011;619;51.472;6.628;2024-02-14T03:34:15;4.13;;;2.07;;
1258;SDS011;619;51.472;6.628;2024-02-14T03:36:46;2.33;;;1.53;;
1258;SDS011;619;51.472;6.628;2024-02-14T03:39:17;2.20;;;1.57;;
1258;SDS011;619;51.472;6.628;2024-02-14T03:41:45;3.20;;;1.03;;
1258;SDS011;619;51.472;6.628;2024-02-14T03:44:10;2.80;;;1.70;;
1258;SDS011;619;51.472;6.628;2024-02-14T03:46:38;3.20;;;1.60;;
1258;SDS011;619;51.472;6.628;2024-02-14T03:49:04;2.10;;;1.90;;
1258;SDS011;619;51.472;6.628;2024-02-14T03:51:29;2.57;;;1.90;;
1258;SDS011;619;51.472;6.628;2024-02-14T03:53:55;2.23;;;1.70;;
1258;SDS011;619;51.472;6.628;2024-02-14T03:56:21;2.20;;;1.70;;
1258;SDS011;619;51.472;6.628;2024-02-14T03:58:47;1.73;;;1.63;;
1258;SDS011;619;51.472;6.628;2024-02-14T04:01:12;2.00;;;1.70;;
1258;SDS011;619;51.472;6.628;2024-02-14T04:03:39;1.67;;;1.50;;
1258;SDS011;619;51.472;6.628;2024-02-14T04:06:06;2.43;;;1.40;;
1258;SDS011;619;51.472;6.628;2024-02-14T04:08:34;1.90;;;1.50;;
1258;SDS011;619;51.472;6.628;2024-02-14T04:11:00;2.27;;;1.63;;
1258;SDS011;619;51.472;6.628;2024-02-14T04:13:28;3.30;;;1.20;;
1258;SDS011;619;51.472;6.628;2024-02-14T04:15:56;2.10;;;1.37;;
1258;SDS011;619;51.472;6.628;2024-02-14T04:18:24;2.37;;;1.47;;
1258;SDS011;619;51.472;6.628;2024-02-14T04:20:49;3.20;;;2.03;;
1258;SDS011;619;51.472;6.628;2024-02-14T04:23:15;3.30;;;2.60;;
1258;SDS011;619;51.472;6.628;2024-02-14T04:25:43;2.10;;;1.60;;
1258;SDS011;619;51.472;6.628;2024-02-14T04:28:12;2.40;;;1.60;;
1258;SDS011;619;51.472;6.628;2024-02-14T04:30:38;4.10;;;1.97;;
1258;SDS011;619;51.472;6.628;2024-02-14T04:33:06;1.50;;;1.40;;
1258;SDS011;619;51.472;6.628;2024-02-14T04:35:33;1.67;;;1.50;;
1258;SDS011;619;51.472;6.628;2024-02-14T04:37:58;3.10;;;1.67;;
1258;SDS011;619;51.472;6.628;2024-02-14T04:40:27;2.07;;;1.87;;
1258;SDS011;619;51.472;6.628;2024-02-14T04:42:53;2.13;;;1.60;;
1258;SDS011;619;51.472;6.628;2024-02-14T04:45:19;1.90;;;1.70;;
1258;SDS011;619;51.472;6.628;2024-02-14T04:47:46;2.47;;;1.53;;
1258;SDS011;619;51.472;6.628;2024-02-14T04:50:17;4.30;;;2.00;;
1258;SDS011;619;51.472;6.628;2024-02-14T04:52:43;1.73;;;1.50;;
1258;SDS011;619;51.472;6.628;2024-02-14T04:55:09;2.33;;;2.03;;
1258;SDS011;619;51.472;6.628;2024-02-14T04:57:37;3.27;;;2.10;;
1258;SDS011;619;51.472;6.628;2024-02-14T05:00:05;2.17;;;1.30;;
1258;SDS011;619;51.472;6.628;2024-02-14T05:02:33;1.67;;;1.47;;
1258;SDS011;619;51.472;6.628;2024-02-14T05:05:02;3.60;;;3.30;;
1258;SDS011;619;51.472;6.628;2024-02-14T05:07:30;3.70;;;1.67;;
1258;SDS011;619;51.472;6.628;2024-02-14T05:09:59;2.30;;;1.70;;
1258;SDS011;619;51.472;6.628;2024-02-14T05:12:27;4.83;;;1.90;;
1258;SDS011;619;51.472;6.628;2024-02-14T05:14:52;1.87;;;1.67;;
1258;SDS011;619;51.472;6.628;2024-02-14T05:17:18;2.07;;;1.70;;
1258;SDS011;619;51.472;6.628;2024-02-14T05:19:46;2.30;;;2.03;;
1258;SDS011;619;51.472;6.628;2024-02-14T05:22:12;4.10;;;1.97;;
1258;SDS011;619;51.472;6.628;2024-02-14T05:24:37;3.30;;;2.30;;
1258;SDS011;619;51.472;6.628;2024-02-14T05:27:07;1.73;;;1.47;;
1258;SDS011;619;51.472;6.628;2024-02-14T05:29:35;3.93;;;1.90;;
1258;SDS011;619;51.472;6.628;2024-02-14T05:32:01;2.00;;;1.80;;
1258;SDS011;619;51.472;6.628;2024-02-14T05:34:29;3.10;;;1.83;;
1258;SDS011;619;51.472;6.628;2024-02-14T05:36:55;2.37;;;1.50;;
1258;SDS011;619;51.472;6.628;2024-02-14T05:39:21;6.13;;;2.37;;
1258;SDS011;619;51.472;6.628;2024-02-14T05:41:51;4.13;;;1.83;;
1258;SDS011;619;51.472;6.628;2024-02-14T05:44:20;3.97;;;2.40;;
1258;SDS011;619;51.472;6.628;2024-02-14T05:46:47;1.60;;;1.50;;
1258;SDS011;619;51.472;6.628;2024-02-14T05:49:13;2.07;;;1.77;;
1258;SDS011;619;51.472;6.628;2024-02-14T05:51:39;2.60;;;1.90;;
1258;SDS011;619;51.472;6.628;2024-02-14T05:54:05;1.80;;;1.70;;
1258;SDS011;619;51.472;6.628;2024-02-14T05:56:31;1.90;;;1.70;;
1258;SDS011;619;51.472;6.628;2024-02-14T05:58:57;3.23;;;1.73;;
1258;SDS011;619;51.472;6.628;2024-02-14T06:01:22;3.50;;;2.13;;
1258;SDS011;619;51.472;6.628;2024-02-14T06:03:50;1.93;;;1.73;;
1258;SDS011;619;51.472;6.628;2024-02-14T06:06:16;2.43;;;1.97;;
1258;SDS011;619;51.472;6.628;2024-02-14T06:08:44;2.50;;;1.80;;
1258;SDS011;619;51.472;6.628;2024-02-14T06:11:09;5.83;;;2.27;;
1258;SDS011;619;51.472;6.628;2024-02-14T06:13:39;2.13;;;1.80;;
1258;SDS011;619;51.472;6.628;2024-02-14T06:16:05;2.67;;;2.27;;
1258;SDS011;619;51.472;6.628;2024-02-14T06:18:31;2.70;;;1.73;;
1258;SDS011;619;51.472;6.628;2024-02-14T06:21:01;2.40;;;2.20;;
1258;SDS011;619;51.472;6.628;2024-02-14T06:23:27;2.53;;;2.27;;
1258;SDS011;619;51.472;6.628;2024-02-14T06:25:53;3.20;;;2.83;;
1258;SDS011;619;51.472;6.628;2024-02-14T06:28:21;2.57;;;2.37;;
1258;SDS011;619;51.472;6.628;2024-02-14T06:30:49;2.33;;;2.13;;
1258;SDS011;619;51.472;6.628;2024-02-14T06:33:14;2.30;;;2.00;;
1258;SDS011;619;51.472;6.628;2024-02-14T06:35:40;2.97;;;2.47;;
1258;SDS011;619;51.472;6.628;2024-02-14T06:38:08;3.87;;;2.60;;
1258;SDS011;619;51.472;6.628;2024-02-14T06:40:34;2.00;;;1.80;;
1258;SDS011;619;51.472;6.628;2024-02-14T06:42:59;2.80;;;2.10;;
1258;SDS011;619;51.472;6.628;2024-02-14T06:45:25;3.70;;;2.70;;
1258;SDS011;619;51.472;6.628;2024-02-14T06:47:52;4.93;;;2.60;;
1258;SDS011;619;51.472;6.628;2024-02-14T06:50:20;3.57;;;2.00;;
1258;SDS011;619;51.472;6.628;2024-02-14T06:52:46;2.93;;;2.70;;
1258;SDS011;619;51.472;6.628;2024-02-14T06:55:15;6.23;;;2.70;;
1258;SDS011;619;51.472;6.628;2024-02-14T06:57:40;3.70;;;3.20;;
1258;SDS011;619;51.472;6.628;2024-02-14T07:00:09;3.70;;;3.17;;
1258;SDS011;619;51.472;6.628;2024-02-14T07:02:38;3.47;;;2.80;;
1258;SDS011;619;51.472;6.628;2024-02-14T07:05:10;3.60;;;2.73;;
1258;SDS011;619;51.472;6.628;2024-02-14T07:07:39;4.00;;;2.93;;
1258;SDS011;619;51.472;6.628;2024-02-14T07:10:05;3.00;;;2.70;;
1258;SDS011;619;51.472;6.628;2024-02-14T07:12:34;3.30;;;2.57;;
1258;SDS011;619;51.472;6.628;2024-02-14T07:15:01;3.50;;;2.57;;
1258;SDS011;619;51.472;6.628;2024-02-14T07:17:29;4.40;;;3.17;;
1258;SDS011;619;51.472;6.628;2024-02-14T07:19:58;3.00;;;2.70;;
1258;SDS011;619;51.472;6.628;2024-02-14T07:22:23;2.80;;;2.43;;
1258;SDS011;619;51.472;6.628;2024-02-14T07:24:54;3.03;;;2.37;;
1258;SDS011;619;51.472;6.628;2024-02-14T07:27:19;3.40;;;3.00;;
1258;SDS011;619;51.472;6.628;2024-02-14T07:29:48;5.23;;;2.50;;
1258;SDS011;619;51.472;6.628;2024-02-14T07:32:17;3.10;;;2.60;;
1258;SDS011;619;51.472;6.628;2024-02-14T07:34:45;4.30;;;2.77;;
1258;SDS011;619;51.472;6.628;2024-02-14T07:37:11;3.43;;;2.93;;
1258;SDS011;619;51.472;6.628;2024-02-14T07:39:36;2.77;;;2.57;;
1258;SDS011;619;51.472;6.628;2024-02-14T07:42:06;2.90;;;2.60;;
1258;SDS011;619;51.472;6.628;2024-02-14T07:44:31;3.00;;;2.37;;
1258;SDS011;619;51.472;6.628;2024-02-14T07:46:57;3.03;;;2.60;;
1258;SDS011;619;51.472;6.628;2024-02-14T07:49:23;2.73;;;2.53;;
1258;SDS011;619;51.472;6.628;2024-02-14T07:51:49;3.20;;;2.60;;
1258;SDS011;619;51.472;6.628;2024-02-14T07:54:14;2.70;;;2.40;;
1258;SDS011;619;51.472;6.628;2024-02-14T07:56:42;2.70;;;2.50;;
1258;SDS011;619;51.472;6.628;2024-02-14T07:59:10;3.00;;;2.77;;
1258;SDS011;619;51.472;6.628;2024-02-14T08:01:36;4.73;;;2.60;;
1258;SDS011;619;51.472;6.628;2024-02-14T08:04:02;3.97;;;3.07;;
1258;SDS011;619;51.472;6.628;2024-02-14T08:06:29;2.93;;;1.93;;
1258;SDS011;619;51.472;6.628;2024-02-14T08:08:57;5.80;;;3.00;;
1258;SDS011;619;51.472;6.628;2024-02-14T08:11:29;2.60;;;2.40;;
1258;SDS011;619;51.472;6.628;2024-02-14T08:13:59;3.80;;;2.70;;
1258;SDS011;619;51.472;6.628;2024-02-14T08:16:24;4.20;;;2.60;;
1258;SDS011;619;51.472;6.628;2024-02-14T08:18:50;2.60;;;2.40;;
1258;SDS011;619;51.472;6.628;2024-02-14T08:21:18;4.33;;;2.03;;
1258;SDS011;619;51.472;6.628;2024-02-14T08:23:46;2.53;;;2.33;;
1258;SDS011;619;51.472;6.628;2024-02-14T08:26:11;3.57;;;2.50;;
1258;SDS011;619;51.472;6.628;2024-02-14T08:28:39;4.53;;;2.60;;
1258;SDS011;619;51.472;6.628;2024-02-14T08:31:11;2.60;;;2.20;;
1258;SDS011;619;51.472;6.628;2024-02-14T08:33:40;2.20;;;2.00;;
1258;SDS011;619;51.472;6.628;2024-02-14T08:36:08;3.40;;;2.80;;
1258;SDS011;619;51.472;6.628;2024-02-14T08:38:34;3.83;;;2.67;;
1258;SDS011;619;51.472;6.628;2024-02-14T08:41:04;2.73;;;2.30;;
1258;SDS011;619;51.472;6.628;2024-02-14T08:43:33;5.07;;;2.70;;
1258;SDS011;619;51.472;6.628;2024-02-14T08:46:01;3.00;;;2.00;;
1258;SDS011;619;51.472;6.628;2024-02-14T08:48:27;3.00;;;1.80;;
1258;SDS011;619;51.472;6.628;2024-02-14T08:50:55;4.83;;;2.27;;
1258;SDS011;619;51.472;6.628;2024-02-14T08:53:23;3.90;;;3.50;;
1258;SDS011;619;51.472;6.628;2024-02-14T08:55:49;3.23;;;2.00;;
1258;SDS011;619;51.472;6.628;2024-02-14T08:58:14;3.37;;;2.13;;
1258;SDS011;619;51.472;6.628;2024-02-14T09:00:42;2.60;;;1.80;;
1258;SDS011;619;51.472;6.628;2024-02-14T09:03:10;2.77;;;2.43;;
1258;SDS011;619;51.472;6.628;2024-02-14T09:05:36;2.93;;;2.00;;
1258;SDS011;619;51.472;6.628;2024-02-14T09:08:03;3.30;;;2.20;;
1258;SDS011;619;51.472;6.628;2024-02-14T09:10:33;2.47;;;2.17;;
1258;SDS011;619;51.472;6.628;2024-02-14T09:13:01;3.50;;;2.57;;
1258;SDS011;619;51.472;6.628;2024-02-14T09:15:30;2.50;;;2.30;;
1258;SDS011;619;51.472;6.628;2024-02-14T09:17:56;3.37;;;2.37;;
1258;SDS011;619;51.472;6.628;2024-02-14T09:20:30;2.37;;;1.73;;
1258;SDS011;619;51.472;6.628;2024-02-14T09:22:57;2.83;;;2.30;;
1258;SDS011;619;51.472;6.628;2024-02-14T09:25:23;5.20;;;2.20;;
1258;SDS011;619;51.472;6.628;2024-02-14T09:27:54;2.40;;;1.93;;
1258;SDS011;619;51.472;6.628;2024-02-14T09:30:22;3.20;;;2.10;;
1258;SDS011;619;51.472;6.628;2024-02-14T09:32:52;1.93;;;1.73;;
1258;SDS011;619;51.472;6.628;2024-02-14T09:35:20;2.93;;;2.63;;
1258;SDS011;619;51.472;6.628;2024-02-14T09:37:51;3.27;;;2.23;;
1258;SDS011;619;51.472;6.628;2024-02-14T09:40:19;2.67;;;2.40;;
1258;SDS011;619;51.472;6.628;2024-02-14T09:42:46;4.03;;;1.97;;
1258;SDS011;619;51.472;6.628;2024-02-14T09:45:28;2.93;;;1.73;;
1258;SDS011;619;51.472;6.628;2024-02-14T09:47:55;2.13;;;1.93;;
1258;SDS011;619;51.472;6.628;2024-02-14T09:50:24;3.00;;;1.50;;
1258;SDS011;619;51.472;6.628;2024-02-14T09:52:57;2.90;;;2.17;;
1258;SDS011;619;51.472;6.628;2024-02-14T09:55:23;2.33;;;2.00;;
1258;SDS011;619;51.472;6.628;2024-02-14T09:57:51;3.70;;;2.13;;
1258;SDS011;619;51.472;6.628;2024-02-14T10:00:20;3.67;;;1.73;;
1258;SDS011;619;51.472;6.628;2024-02-14T10:02:47;3.30;;;1.90;;
1258;SDS011;619;51.472;6.628;2024-02-14T10:05:15;1.50;;;1.33;;
1258;SDS011;619;51.472;6.628;2024-02-14T10:07:41;1.80;;;1.37;;
1258;SDS011;619;51.472;6.628;2024-02-14T10:10:09;1.87;;;1.63;;
1258;SDS011;619;51.472;6.628;2024-02-14T10:12:41;2.03;;;1.60;;
1258;SDS011;619;51.472;6.628;2024-02-14T10:15:09;3.03;;;2.00;;
1258;SDS011;619;51.472;6.628;2024-02-14T10:17:35;4.50;;;2.73;;
1258;SDS011;619;51.472;6.628;2024-02-14T10:20:06;2.90;;;1.97;;
1258;SDS011;619;51.472;6.628;2024-02-14T10:22:36;2.37;;;1.70;;
1258;SDS011;619;51.472;6.628;2024-02-14T10:25:06;2.63;;;1.70;;
1258;SDS011;619;51.472;6.628;2024-02-14T10:27:38;3.90;;;2.63;;
1258;SDS011;619;51.472;6.628;2024-02-14T10:30:07;2.70;;;1.63;;
1258;SDS011;619;51.472;6.628;2024-02-14T10:32:34;6.33;;;1.77;;
1258;SDS011;619;51.472;6.628;2024-02-14T10:35:06;4.30;;;1.50;;
1258;SDS011;619;51.472;6.628;2024-02-14T10:37:38;2.50;;;1.63;;
1258;SDS011;619;51.472;6.628;2024-02-14T10:40:04;2.50;;;1.87;;
1258;SDS011;619;51.472;6.628;2024-02-14T10:42:31;4.00;;;2.37;;
1258;SDS011;619;51.472;6.628;2024-02-14T10:44:59;3.00;;;2.07;;
1258;SDS011;619;51.472;6.628;2024-02-14T10:47:34;3.60;;;1.43;;
1258;SDS011;619;51.472;6.628;2024-02-14T10:50:02;1.53;;;1.23;;
1258;SDS011;619;51.472;6.628;2024-02-14T10:52:32;6.40;;;1.83;;
1258;SDS011;619;51.472;6.628;2024-02-14T10:55:01;2.70;;;1.73;;
1258;SDS011;619;51.472;6.628;2024-02-14T10:57:28;2.10;;;1.33;;
1258;SDS011;619;51.472;6.628;2024-02-14T10:59:54;2.77;;;1.30;;
1258;SDS011;619;51.472;6.628;2024-02-14T11:02:22;3.53;;;1.37;;
1258;SDS011;619;51.472;6.628;2024-02-14T11:04:49;3.00;;;1.70;;
1258;SDS011;619;51.472;6.628;2024-02-14T11:07:19;3.50;;;2.20;;
1258;SDS011;619;51.472;6.628;2024-02-14T11:09:45;2.07;;;1.63;;
1258;SDS011;619;51.472;6.628;2024-02-14T11:12:11;3.30;;;1.57;;
1258;SDS011;619;51.472;6.628;2024-02-14T11:14:37;1.43;;;1.33;;
1258;SDS011;619;51.472;6.628;2024-02-14T11:17:12;2.70;;;2.23;;
1258;SDS011;619;51.472;6.628;2024-02-14T11:19:38;1.87;;;1.60;;
1258;SDS011;619;51.472;6.628;2024-02-14T11:22:13;3.30;;;2.33;;
1258;SDS011;619;51.472;6.628;2024-02-14T11:24:48;4.23;;;2.77;;
1258;SDS011;619;51.472;6.628;2024-02-14T11:27:19;1.20;;;1.07;;
1258;SDS011;619;51.472;6.628;2024-02-14T11:29:51;1.83;;;1.53;;
1258;SDS011;619;51.472;6.628;2024-02-14T11:32:21;1.47;;;1.33;;
1258;SDS011;619;51.472;6.628;2024-02-14T11:34:55;2.17;;;1.40;;
1258;SDS011;619;51.472;6.628;2024-02-14T11:37:27;1.37;;;1.07;;
1258;SDS011;619;51.472;6.628;2024-02-14T11:39:54;2.53;;;1.23;;
1258;SDS011;619;51.472;6.628;2024-02-14T11:42:22;1.47;;;1.23;;
1258;SDS011;619;51.472;6.628;2024-02-14T11:44:48;1.90;;;1.47;;
1258;SDS011;619;51.472;6.628;2024-02-14T11:47:14;1.83;;;1.30;;
1258;SDS011;619;51.472;6.628;2024-02-14T11:49:39;2.70;;;1.40;;
1258;SDS011;619;51.472;6.628;2024-02-14T11:52:09;1.97;;;1.27;;
1258;SDS011;619;51.472;6.628;2024-02-14T11:54:36;1.70;;;1.00;;
1258;SDS011;619;51.472;6.628;2024-02-14T11:57:05;1.50;;;1.00;;
1258;SDS011;619;51.472;6.628;2024-02-14T11:59:33;1.60;;;1.20;;
1258;SDS011;619;51.472;6.628;2024-02-14T12:01:59;1.43;;;0.97;;
1258;SDS011;619;51.472;6.628;2024-02-14T12:04:27;1.30;;;1.13;;
1258;SDS011;619;51.472;6.628;2024-02-14T12:06:53;3.87;;;1.00;;
1258;SDS011;619;51.472;6.628;2024-02-14T12:09:19;1.30;;;1.00;;
1258;SDS011;619;51.472;6.628;2024-02-14T12:11:47;2.40;;;1.13;;
1258;SDS011;619;51.472;6.628;2024-02-14T12:14:15;1.37;;;0.90;;
1258;SDS011;619;51.472;6.628;2024-02-14T12:16:43;3.83;;;1.80;;
1258;SDS011;619;51.472;6.628;2024-02-14T12:19:13;1.93;;;1.00;;
1258;SDS011;619;51.472;6.628;2024-02-14T12:21:43;1.20;;;0.90;;
1258;SDS011;619;51.472;6.628;2024-02-14T12:24:13;3.23;;;1.40;;
1258;SDS011;619;51.472;6.628;2024-02-14T12:26:40;2.03;;;1.23;;
1258;SDS011;619;51.472;6.628;2024-02-14T12:29:06;1.73;;;1.20;;
1258;SDS011;619;51.472;6.628;2024-02-14T12:31:38;1.50;;;1.17;;
1258;SDS011;619;51.472;6.628;2024-02-14T12:34:09;1.33;;;0.90;;
1258;SDS011;619;51.472;6.628;2024-02-14T12:36:39;1.10;;;0.70;;
1258;SDS011;619;51.472;6.628;2024-02-14T12:39:05;1.37;;;1.00;;
1258;SDS011;619;51.472;6.628;2024-02-14T12:41:31;2.07;;;1.30;;
1258;SDS011;619;51.472;6.628;2024-02-14T12:43:59;2.23;;;1.53;;
1258;SDS011;619;51.472;6.628;2024-02-14T12:46:27;1.73;;;1.40;;
1258;SDS011;619;51.472;6.628;2024-02-14T12:48:56;1.63;;;1.20;;
1258;SDS011;619;51.472;6.628;2024-02-14T12:51:26;1.30;;;0.90;;
1258;SDS011;619;51.472;6.628;2024-02-14T12:53:53;1.87;;;1.23;;
1258;SDS011;619;51.472;6.628;2024-02-14T12:56:21;1.53;;;1.20;;
1258;SDS011;619;51.472;6.628;2024-02-14T12:58:46;3.30;;;1.93;;
1258;SDS011;619;51.472;6.628;2024-02-14T13:01:13;2.60;;;1.97;;
1258;SDS011;619;51.472;6.628;2024-02-14T13:03:42;1.50;;;1.10;;
1258;SDS011;619;51.472;6.628;2024-02-14T13:06:08;1.63;;;1.20;;
1258;SDS011;619;51.472;6.628;2024-02-14T13:08:35;1.43;;;1.17;;
1258;SDS011;619;51.472;6.628;2024-02-14T13:11:03;2.43;;;1.47;;
1258;SDS011;619;51.472;6.628;2024-02-14T13:13:33;1.53;;;1.17;;
1258;SDS011;619;51.472;6.628;2024-02-14T13:16:00;2.33;;;0.90;;
1258;SDS011;619;51.472;6.628;2024-02-14T13:18:27;1.60;;;1.40;;
1258;SDS011;619;51.472;6.628;2024-02-14T13:20:53;1.60;;;1.00;;
1258;SDS011;619;51.472;6.628;2024-02-14T13:23:24;1.30;;;0.83;;
1258;SDS011;619;51.472;6.628;2024-02-14T13:25:50;1.20;;;1.03;;
1258;SDS011;619;51.472;6.628;2024-02-14T13:28:16;2.30;;;1.00;;
1258;SDS011;619;51.472;6.628;2024-02-14T13:30:44;1.30;;;1.00;;
1258;SDS011;619;51.472;6.628;2024-02-14T13:33:12;0.90;;;0.70;;
1258;SDS011;619;51.472;6.628;2024-02-14T13:35:41;1.33;;;1.20;;
1258;SDS011;619;51.472;6.628;2024-02-14T13:38:09;2.27;;;1.37;;
1258;SDS011;619;51.472;6.628;2024-02-14T13:40:37;1.40;;;1.00;;
1258;SDS011;619;51.472;6.628;2024-02-14T13:43:03;1.20;;;0.90;;
1258;SDS011;619;51.472;6.628;2024-02-14T13:45:39;2.07;;;0.70;;
1258;SDS011;619;51.472;6.628;2024-02-14T13:48:09;2.07;;;0.90;;
1258;SDS011;619;51.472;6.628;2024-02-14T13:50:35;1.53;;;0.90;;
1258;SDS011;619;51.472;6.628;2024-02-14T13:53:02;1.00;;;0.80;;
1258;SDS011;619;51.472;6.628;2024-02-14T13:55:28;1.10;;;0.80;;
1258;SDS011;619;51.472;6.628;2024-02-14T13:57:56;1.10;;;0.80;;
1258;SDS011;619;51.472;6.628;2024-02-14T14:00:25;1.30;;;1.00;;
1258;SDS011;619;51.472;6.628;2024-02-14T14:02:50;2.27;;;0.80;;
1258;SDS011;619;51.472;6.628;2024-02-14T14:05:16;3.40;;;1.17;;
1258;SDS011;619;51.472;6.628;2024-02-14T14:07:42;2.23;;;1.50;;
1258;SDS011;619;51.472;6.628;2024-02-14T14:10:08;2.13;;;1.00;;
1258;SDS011;619;51.472;6.628;2024-02-14T14:12:34;2.23;;;1.30;;
1258;SDS011;619;51.472;6.628;2024-02-14T14:15:02;1.20;;;0.87;;
1258;SDS011;619;51.472;6.628;2024-02-14T14:17:29;1.57;;;0.93;;
1258;SDS011;619;51.472;6.628;2024-02-14T14:19:55;0.90;;;0.60;;
1258;SDS011;619;51.472;6.628;2024-02-14T14:22:20;1.40;;;0.90;;
1258;SDS011;619;51.472;6.628;2024-02-14T14:24:48;1.47;;;1.33;;
1258;SDS011;619;51.472;6.628;2024-02-14T14:27:14;1.30;;;0.80;;
1258;SDS011;619;51.472;6.628;2024-02-14T14:29:40;1.30;;;0.90;;
1258;SDS011;619;51.472;6.628;2024-02-14T14:32:11;1.17;;;0.83;;
1258;SDS011;619;51.472;6.628;2024-02-14T14:34:36;2.03;;;1.17;;
1258;SDS011;619;51.472;6.628;2024-02-14T14:37:05;1.07;;;0.67;;
1258;SDS011;619;51.472;6.628;2024-02-14T14:39:31;1.10;;;0.80;;
1258;SDS011;619;51.472;6.628;2024-02-14T14:41:57;1.87;;;0.80;;
1258;SDS011;619;51.472;6.628;2024-02-14T14:44:26;1.97;;;1.47;;
1258;SDS011;619;51.472;6.628;2024-02-14T14:46:52;1.83;;;0.80;;
1258;SDS011;619;51.472;6.628;2024-02-14T14:49:18;1.00;;;0.63;;
1258;SDS011;619;51.472;6.628;2024-02-14T14:51:47;1.97;;;0.80;;
1258;SDS011;619;51.472;6.628;2024-02-14T14:54:13;1.67;;;0.70;;
1258;SDS011;619;51.472;6.628;2024-02-14T14:56:38;1.43;;;0.80;;
1258;SDS011;619;51.472;6.628;2024-02-14T14:59:06;1.97;;;1.17;;
1258;SDS011;619;51.472;6.628;2024-02-14T15:01:32;2.20;;;0.97;;
1258;SDS011;619;51.472;6.628;2024-02-14T15:04:01;0.90;;;0.67;;
1258;SDS011;619;51.472;6.628;2024-02-14T15:06:27;2.07;;;1.53;;
1258;SDS011;619;51.472;6.628;2024-02-14T15:08:57;2.20;;;0.87;;
1258;SDS011;619;51.472;6.628;2024-02-14T15:11:28;1.10;;;0.80;;
1258;SDS011;619;51.472;6.628;2024-02-14T15:13:57;1.20;;;0.70;;
1258;SDS011;619;51.472;6.628;2024-02-14T15:16:25;1.03;;;0.80;;
1258;SDS011;619;51.472;6.628;2024-02-14T15:18:54;1.00;;;0.63;;
1258;SDS011;619;51.472;6.628;2024-02-14T15:21:19;1.60;;;0.70;;
1258;SDS011;619;51.472;6.628;2024-02-14T15:23:45;3.03;;;0.73;;
1258;SDS011;619;51.472;6.628;2024-02-14T15:26:13;0.90;;;0.70;;
1258;SDS011;619;51.472;6.628;2024-02-14T15:28:42;1.50;;;0.83;;
1258;SDS011;619;51.472;6.628;2024-02-14T15:31:10;1.10;;;0.80;;